TimeCST,TemperatureF,Dew PointF,Humidity,Sea Level PressureIn,VisibilityMPH,Wind Direction,Wind SpeedMPH,Gust SpeedMPH,PrecipitationIn,Events,Conditions,WindDirDegrees,DateUTC
12:00 AM,32.0,32.0,100,29.56,10.0,WNW,15.0,21.9,N/A,,Clear,300,2013-02-18 06:00:00
12:20 AM,32.0,32.0,100,29.56,10.0,NW,12.7,-,N/A,,Partly Cloudy,310,2013-02-18 06:20:00
12:40 AM,32.0,32.0,100,29.56,10.0,WNW,12.7,-,N/A,,Scattered Clouds,300,2013-02-18 06:40:00
1:00 AM,32.0,32.0,100,29.56,10.0,NW,11.5,-,N/A,,Partly Cloudy,310,2013-02-18 07:00:00
1:20 AM,32.0,32.0,100,29.57,10.0,WNW,11.5,17.3,N/A,,Clear,290,2013-02-18 07:20:00
1:40 AM,32.0,32.0,100,29.57,10.0,WNW,17.3,24.2,N/A,,Partly Cloudy,290,2013-02-18 07:40:00
2:00 AM,32.0,32.0,100,29.58,10.0,WNW,18.4,21.9,N/A,,Mostly Cloudy,290,2013-02-18 08:00:00
2:20 AM,32.0,32.0,100,29.59,10.0,WNW,15.0,-,N/A,,Overcast,290,2013-02-18 08:20:00
2:40 AM,32.0,32.0,100,29.59,10.0,West,13.8,18.4,N/A,,Overcast,280,2013-02-18 08:40:00
3:00 AM,32.0,32.0,100,29.60,10.0,West,16.1,20.7,N/A,,Mostly Cloudy,280,2013-02-18 09:00:00
3:20 AM,32.0,32.0,100,29.60,10.0,WNW,19.6,23.0,N/A,,Overcast,290,2013-02-18 09:20:00
3:40 AM,32.0,32.0,100,29.59,10.0,WNW,17.3,23.0,N/A,,Overcast,290,2013-02-18 09:40:00
4:00 AM,33.8,33.8,100,29.59,10.0,WNW,23.0,28.8,N/A,,Overcast,300,2013-02-18 10:00:00
4:20 AM,32.0,32.0,100,29.58,10.0,NW,18.4,26.5,N/A,,Overcast,310,2013-02-18 10:20:00
5:00 AM,32.0,32.0,100,29.58,10.0,NW,21.9,28.8,N/A,,Overcast,310,2013-02-18 11:00:00
5:20 AM,32.0,32.0,100,29.58,10.0,NW,21.9,31.1,N/A,,Overcast,310,2013-02-18 11:20:00
5:40 AM,32.0,32.0,100,29.59,10.0,NW,26.5,31.1,N/A,,Overcast,310,2013-02-18 11:40:00
6:00 AM,32.0,32.0,100,29.59,10.0,NW,27.6,40.3,N/A,,Overcast,320,2013-02-18 12:00:00
6:20 AM,30.2,30.2,100,29.61,10.0,NW,34.5,44.9,N/A,,Overcast,320,2013-02-18 12:20:00
6:40 AM,26.6,26.6,100,29.63,10.0,NW,29.9,43.7,N/A,Rain,Freezing Rain,320,2013-02-18 12:40:00
7:20 AM,21.2,21.2,100,29.67,10.0,NNW,29.9,41.4,N/A,,Partly Cloudy,330,2013-02-18 13:20:00
7:40 AM,21.2,21.2,100,29.69,10.0,NNW,33.4,42.6,N/A,,Scattered Clouds,330,2013-02-18 13:40:00
8:00 AM,21.2,21.2,100,29.70,10.0,NNW,32.2,44.9,N/A,Snow,Light Snow,330,2013-02-18 14:00:00
8:20 AM,19.4,19.4,100,29.71,10.0,NNW,34.5,44.9,N/A,,Mostly Cloudy,330,2013-02-18 14:20:00
8:40 AM,19.4,19.4,100,29.73,10.0,NNW,31.1,38.0,N/A,,Mostly Cloudy,330,2013-02-18 14:40:00
9:00 AM,19.4,19.4,100,29.73,9.0,NNW,34.5,40.3,N/A,Snow,Light Snow,330,2013-02-18 15:00:00
9:20 AM,17.6,17.6,100,29.73,9.0,NNW,34.5,43.7,N/A,Snow,Light Snow,330,2013-02-18 15:20:00
9:40 AM,19.4,19.4,100,29.74,8.0,NNW,35.7,42.6,0.03,Snow,Light Snow,330,2013-02-18 15:40:00
10:00 AM,17.6,17.6,100,29.74,10.0,NNW,32.2,41.4,0.07,Snow,Light Snow,330,2013-02-18 16:00:00
10:20 AM,17.6,17.6,100,29.75,10.0,NNW,34.5,41.4,0.04,Snow,Light Snow,330,2013-02-18 16:20:00
10:40 AM,17.6,17.6,100,29.76,9.0,NW,33.4,42.6,0.06,Snow,Light Snow,320,2013-02-18 16:40:00
11:00 AM,17.6,17.6,100,29.77,10.0,NW,33.4,41.4,0.07,Snow,Light Snow,320,2013-02-18 17:00:00
11:20 AM,17.6,15.8,93,29.78,10.0,NW,40.3,49.5,0.04,Snow,Light Snow,320,2013-02-18 17:20:00
11:40 AM,17.6,15.8,93,29.80,10.0,NNW,36.8,43.7,0.04,Rain,Freezing Rain,330,2013-02-18 17:40:00
12:00 PM,17.6,15.8,93,29.80,9.0,NNW,31.1,46.0,0.08,Snow,Light Snow,330,2013-02-18 18:00:00
12:20 PM,17.6,15.8,93,29.81,10.0,NW,33.4,42.6,0.03,Snow,Light Snow,320,2013-02-18 18:20:00
12:40 PM,15.8,14.0,93,29.82,10.0,NNW,34.5,47.2,0.03,Snow,Light Snow,330,2013-02-18 18:40:00
1:00 PM,15.8,15.8,100,29.82,8.0,NNW,33.4,41.4,0.09,Snow,Light Snow,340,2013-02-18 19:00:00
1:20 PM,17.6,17.6,100,29.82,8.0,NNW,26.5,33.4,0.05,Snow,Light Snow,330,2013-02-18 19:20:00
1:40 PM,17.6,15.8,93,29.83,10.0,NNW,36.8,43.7,0.24,Snow,Light Snow,330,2013-02-18 19:40:00
2:00 PM,17.6,15.8,93,29.83,10.0,NW,26.5,35.7,0.26,Snow,Light Snow,320,2013-02-18 20:00:00
2:20 PM,15.8,15.8,100,29.84,3.0,NNW,28.8,38.0,0.08,Snow,Light Snow,330,2013-02-18 20:20:00
2:40 PM,15.8,15.8,100,29.84,5.0,NW,27.6,34.5,0.13,Snow,Light Snow,320,2013-02-18 20:40:00
3:00 PM,15.8,14.0,93,29.85,10.0,NNW,31.1,39.1,0.20,Snow,Light Snow,330,2013-02-18 21:00:00
3:20 PM,15.8,15.8,100,29.86,4.0,NNW,32.2,39.1,0.01,Snow,Light Snow,330,2013-02-18 21:20:00
3:40 PM,14.0,14.0,100,29.87,4.0,NNW,29.9,39.1,0.04,Snow,Light Snow,330,2013-02-18 21:40:00
4:00 PM,12.2,12.2,100,29.88,1.0,NNW,32.2,39.1,0.14,Snow,Light Snow,330,2013-02-18 22:00:00
4:20 PM,12.2,12.2,100,29.89,2.5,NNW,26.5,34.5,0.03,Snow,Light Snow,330,2013-02-18 22:20:00
4:40 PM,12.2,12.2,100,29.89,3.0,NNW,31.1,42.6,0.08,Snow,Light Snow,330,2013-02-18 22:40:00
5:00 PM,12.2,12.2,100,29.90,10.0,NNW,31.1,36.8,0.09,Snow,Light Snow,330,2013-02-18 23:00:00
5:20 PM,10.4,10.4,100,29.91,2.0,NNW,31.1,41.4,0.07,Snow,Light Snow,330,2013-02-18 23:20:00
5:40 PM,10.4,10.4,100,29.92,10.0,NNW,27.6,36.8,0.08,Rain,Freezing Rain,330,2013-02-18 23:40:00
6:00 PM,10.4,8.6,92,29.93,10.0,NNW,27.6,38.0,0.08,Rain,Freezing Rain,330,2013-02-19 00:00:00
6:20 PM,10.4,10.4,100,29.94,10.0,NNW,28.8,38.0,N/A,Snow,Light Snow,330,2013-02-19 00:20:00
6:40 PM,8.6,8.6,100,29.94,8.0,NNW,25.3,32.2,0.01,Snow,Light Snow,330,2013-02-19 00:40:00
7:00 PM,8.6,6.8,92,29.95,10.0,NNW,31.1,36.8,0.01,,Overcast,330,2013-02-19 01:00:00
7:20 PM,8.6,6.8,92,29.95,10.0,NNW,28.8,39.1,N/A,,Overcast,330,2013-02-19 01:20:00
7:40 PM,6.8,6.8,100,29.95,10.0,NNW,28.8,34.5,N/A,Snow,Light Snow,330,2013-02-19 01:40:00
8:00 PM,6.8,6.8,100,29.95,10.0,NNW,25.3,36.8,N/A,,Overcast,330,2013-02-19 02:00:00
8:20 PM,6.8,6.8,100,29.96,10.0,NNW,26.5,33.4,N/A,,Overcast,330,2013-02-19 02:20:00
8:40 PM,6.8,6.8,100,29.96,9.0,NNW,27.6,36.8,N/A,Snow,Light Snow,330,2013-02-19 02:40:00
9:00 PM,6.8,6.8,100,29.97,3.0,NNW,28.8,35.7,N/A,Snow,Light Snow,330,2013-02-19 03:00:00
9:20 PM,6.8,6.8,100,29.97,7.0,NNW,28.8,35.7,N/A,Snow,Light Snow,330,2013-02-19 03:20:00
9:40 PM,6.8,6.8,100,29.98,8.0,NW,25.3,36.8,N/A,Snow,Light Snow,320,2013-02-19 03:40:00
10:00 PM,6.8,6.8,100,29.98,9.0,NNW,27.6,36.8,0.01,Rain,Freezing Rain,330,2013-02-19 04:00:00
10:20 PM,6.8,6.8,100,29.99,10.0,NW,24.2,33.4,N/A,,Overcast,320,2013-02-19 04:20:00
10:40 PM,5.0,5.0,100,30.00,10.0,NW,27.6,31.1,N/A,,Overcast,320,2013-02-19 04:40:00
11:00 PM,5.0,5.0,100,30.01,10.0,NW,24.2,33.4,N/A,,Overcast,320,2013-02-19 05:00:00
11:20 PM,6.8,6.8,100,30.01,10.0,NW,21.9,32.2,N/A,,Overcast,320,2013-02-19 05:20:00
11:40 PM,6.8,6.8,100,30.02,10.0,NNW,27.6,33.4,N/A,Snow,Light Snow,330,2013-02-19 05:40:00